Orbital elements of FENGYUN 1C DEB
| Launched | 9 May 1999 |
| Flight ended | – |
| Launch site | Taiyuan Space Center, PRC |
| Owner | People's Republic of China |
| NORAD ID | 30450 |
| Date fetched |
Epoch osculation |
Inc. [°] |
Ecc. | RA asc node [hr] |
Arg Peri. [°] |
Mean anom [°] |
Mean motion [rev/day] |
Abs. mag |
| Date fetched |
Epoch osculation |
Inc. [°] |
Ecc. | RA asc node [hr] |
Arg Peri. [°] |
Mean anom [°] |
Mean motion [rev/day] |
Abs. mag |
| 2026 May 03 17:57 | 2026 Apr 29 23:51:59 | 98.0724 | 0.01877 | 9.0733 | 133.7533 | 286.9516 | 14.62966 | – |
| 2026 May 02 17:57 | 2026 Apr 29 23:51:59 | 98.0724 | 0.01877 | 9.0733 | 133.7533 | 286.9516 | 14.62966 | – |
| 2026 May 01 17:56 | 2026 Apr 29 23:51:59 | 98.0724 | 0.01877 | 9.0733 | 133.7533 | 286.9516 | 14.62966 | – |
| 2026 Apr 30 17:56 | 2026 Apr 29 23:51:59 | 98.0724 | 0.01877 | 9.0733 | 133.7533 | 286.9516 | 14.62966 | – |
| 2026 Apr 29 17:57 | 2026 Apr 24 12:57:34 | 98.0735 | 0.01873 | 8.7173 | 150.8021 | 286.9516 | 14.62966 | – |
| 2026 Apr 28 17:56 | 2026 Apr 24 12:57:34 | 98.0735 | 0.01873 | 8.7173 | 150.8021 | 286.9516 | 14.62966 | – |
| 2026 Apr 27 17:58 | 2026 Apr 24 12:57:34 | 98.0735 | 0.01873 | 8.7173 | 150.8021 | 286.9516 | 14.62966 | – |
| 2026 Apr 26 17:58 | 2026 Apr 24 12:57:34 | 98.0735 | 0.01873 | 8.7173 | 150.8021 | 286.9516 | 14.62966 | – |
| 2026 Apr 25 17:58 | 2026 Apr 24 12:57:34 | 98.0735 | 0.01873 | 8.7173 | 150.8021 | 286.9516 | 14.62966 | – |
| 2026 Apr 24 17:59 | 2026 Apr 24 12:57:34 | 98.0735 | 0.01873 | 8.7173 | 150.8021 | 286.9516 | 14.62966 | – |
| 2026 Apr 23 17:57 | 2026 Apr 18 19:11:01 | 98.0745 | 0.01870 | 8.3425 | 168.8147 | 286.9516 | 14.62966 | – |
| 2026 Apr 22 17:57 | 2026 Apr 18 19:11:01 | 98.0745 | 0.01870 | 8.3425 | 168.8147 | 286.9516 | 14.62966 | – |
| 2026 Apr 21 17:57 | 2026 Apr 18 19:11:01 | 98.0745 | 0.01870 | 8.3425 | 168.8147 | 286.9516 | 14.62966 | – |
| 2026 Apr 20 17:57 | 2026 Apr 18 19:11:01 | 98.0745 | 0.01870 | 8.3425 | 168.8147 | 286.9516 | 14.62966 | – |
| 2026 Apr 19 17:58 | 2026 Apr 18 19:11:01 | 98.0745 | 0.01870 | 8.3425 | 168.8147 | 286.9516 | 14.62966 | – |
| 2026 Apr 18 17:56 | 2026 Apr 13 00:44:58 | 98.0746 | 0.01866 | 7.9659 | 186.9550 | 286.9516 | 14.62966 | – |
| 2026 Apr 16 17:57 | 2026 Apr 13 00:44:58 | 98.0746 | 0.01866 | 7.9659 | 186.9550 | 286.9516 | 14.62966 | – |
| 2026 Apr 14 17:57 | 2026 Apr 13 00:44:58 | 98.0746 | 0.01866 | 7.9659 | 186.9550 | 286.9516 | 14.62966 | – |
| 2026 Apr 13 17:57 | 2026 Apr 13 00:44:58 | 98.0746 | 0.01866 | 7.9659 | 186.9550 | 286.9516 | 14.62966 | – |
| 2026 Apr 12 17:57 | 2026 Apr 08 12:50:27 | 98.0746 | 0.01862 | 7.6723 | 201.1144 | 286.9516 | 14.62966 | – |
| 2026 Apr 11 17:57 | 2026 Apr 08 12:50:27 | 98.0746 | 0.01862 | 7.6723 | 201.1144 | 286.9516 | 14.62966 | – |
| 2026 Apr 10 17:58 | 2026 Apr 08 12:50:27 | 98.0746 | 0.01862 | 7.6723 | 201.1144 | 286.9516 | 14.62966 | – |
| 2026 Apr 09 18:01 | 2026 Apr 08 12:50:27 | 98.0746 | 0.01862 | 7.6723 | 201.1144 | 286.9516 | 14.62966 | – |
| 2026 Apr 08 17:57 | 2026 Apr 08 12:50:27 | 98.0746 | 0.01862 | 7.6723 | 201.1144 | 286.9516 | 14.62966 | – |
| 2026 Apr 07 17:57 | 2026 Mar 30 00:05:16 | 98.0755 | 0.01858 | 7.0500 | 231.2347 | 286.9516 | 14.62966 | – |
| 2026 Apr 06 17:57 | 2026 Mar 30 00:05:16 | 98.0755 | 0.01858 | 7.0500 | 231.2347 | 286.9516 | 14.62966 | – |